createdAt,value
2022-07-26T00:00:10.787Z,52.56
2022-07-26T00:02:38.694Z,53.01
2022-07-26T00:05:09.940Z,53.72
2022-07-26T00:07:39.868Z,52.81
2022-07-26T00:10:08.205Z,53.48
2022-07-26T00:12:40.361Z,54.27
2022-07-26T00:15:16.700Z,54.27
2022-07-26T00:17:49.894Z,54.44
2022-07-26T00:23:04.753Z,54.84
2022-07-26T00:26:09.612Z,54.79
2022-07-26T00:28:37.318Z,55.50
2022-07-26T00:31:06.297Z,55.55
2022-07-26T00:33:34.282Z,55.72
2022-07-26T00:36:02.044Z,55.88
2022-07-26T00:38:29.537Z,56.54
2022-07-26T00:40:57.251Z,56.64
2022-07-26T00:43:24.750Z,56.88
2022-07-26T00:45:52.269Z,56.35
2022-07-26T00:48:21.130Z,56.92
2022-07-26T00:50:48.687Z,56.83
2022-07-26T00:53:16.349Z,56.53
2022-07-26T00:55:43.847Z,56.69
2022-07-26T00:58:13.388Z,56.78
2022-07-26T01:00:40.900Z,58.30
2022-07-26T01:03:08.560Z,58.28
2022-07-26T01:05:37.426Z,56.42
2022-07-26T01:08:05.265Z,58.07
2022-07-26T01:10:32.879Z,58.57
2022-07-26T01:13:00.933Z,57.83
2022-07-26T01:15:28.437Z,58.10
2022-07-26T01:17:55.921Z,57.33
2022-07-26T01:20:23.435Z,57.45
2022-07-26T01:22:52.342Z,57.69
2022-07-26T01:25:29.702Z,57.89
2022-07-26T01:27:57.427Z,57.54
2022-07-26T01:30:24.962Z,57.88
2022-07-26T01:32:52.473Z,56.87
2022-07-26T01:35:20.037Z,56.16
2022-07-26T01:37:47.553Z,57.14
2022-07-26T01:40:16.395Z,56.83
2022-07-26T01:42:43.928Z,57.42
2022-07-26T01:45:12.605Z,57.09
2022-07-26T01:47:40.635Z,57.12
2022-07-26T01:50:09.570Z,57.13
2022-07-26T01:52:37.347Z,56.62
2022-07-26T01:55:05.359Z,56.22
2022-07-26T01:57:34.186Z,55.67
2022-07-26T02:00:01.706Z,56.70
2022-07-26T02:02:29.647Z,56.21
2022-07-26T02:05:00.125Z,55.94
2022-07-26T02:07:28.147Z,55.82
2022-07-26T02:09:56.232Z,55.75
2022-07-26T02:12:25.870Z,55.22
2022-07-26T02:14:54.790Z,55.85
2022-07-26T02:17:22.330Z,55.23
2022-07-26T02:19:50.215Z,55.58
2022-07-26T02:22:18.939Z,55.96
2022-07-26T02:24:46.553Z,56.22
2022-07-26T02:27:14.084Z,56.73
2022-07-26T02:29:41.599Z,57.73
2022-07-26T02:32:11.103Z,58.71
2022-07-26T02:34:38.865Z,59.00
2022-07-26T02:37:06.531Z,58.26
2022-07-26T02:39:34.021Z,58.25
2022-07-26T02:42:03.034Z,58.22
2022-07-26T02:44:31.144Z,57.85
2022-07-26T02:46:58.687Z,57.73
2022-07-26T02:49:27.545Z,58.26
2022-07-26T02:51:55.076Z,57.95
2022-07-26T02:54:22.637Z,58.52
2022-07-26T02:56:50.173Z,59.37
2022-07-26T02:59:17.654Z,60.07
2022-07-26T03:01:45.297Z,59.72
2022-07-26T03:04:12.885Z,60.14
2022-07-26T03:06:41.737Z,59.87
2022-07-26T03:09:09.239Z,59.55
2022-07-26T03:11:36.712Z,60.43
2022-07-26T03:14:04.360Z,60.36
2022-07-26T03:16:32.295Z,60.20
2022-07-26T03:19:01.089Z,59.38
2022-07-26T03:21:28.741Z,60.31
2022-07-26T03:23:57.589Z,60.28
2022-07-26T03:26:25.088Z,60.37
2022-07-26T03:28:52.855Z,60.58
2022-07-26T03:31:20.630Z,61.45
2022-07-26T03:33:48.210Z,60.99
2022-07-26T03:36:16.334Z,61.32
2022-07-26T03:38:43.862Z,61.26
2022-07-26T03:41:13.494Z,61.15
2022-07-26T03:43:41.453Z,61.76
2022-07-26T03:46:08.989Z,61.78
2022-07-26T03:48:36.623Z,62.58
2022-07-26T03:51:04.540Z,63.32
2022-07-26T03:53:32.599Z,62.96
2022-07-26T03:56:17.871Z,62.88
2022-07-26T03:58:46.756Z,64.12
2022-07-26T04:01:14.293Z,64.60
2022-07-26T04:03:45.744Z,63.00
2022-07-26T04:06:15.347Z,63.30
2022-07-26T04:08:43.120Z,63.68
2022-07-26T04:11:10.630Z,64.40
2022-07-26T04:13:38.118Z,63.56
2022-07-26T04:16:07.959Z,63.87
2022-07-26T04:18:35.691Z,63.16
2022-07-26T04:21:03.501Z,62.71
2022-07-26T04:23:30.991Z,62.73
2022-07-26T04:25:58.500Z,62.42
2022-07-26T04:28:28.689Z,61.83
2022-07-26T04:30:56.254Z,60.92
2022-07-26T04:33:25.595Z,59.94
2022-07-26T04:35:53.524Z,61.08
2022-07-26T04:38:21.190Z,59.98
2022-07-26T04:40:48.629Z,60.00
2022-07-26T04:43:16.299Z,60.97
2022-07-26T04:45:44.687Z,60.86
2022-07-26T04:48:12.288Z,60.73
2022-07-26T04:50:42.310Z,61.42
2022-07-26T04:53:11.110Z,61.16
2022-07-26T04:55:38.745Z,61.55
2022-07-26T04:58:06.598Z,62.20
2022-07-26T05:00:35.072Z,61.38
2022-07-26T05:03:14.463Z,61.89
2022-07-26T05:05:43.625Z,60.71
2022-07-26T05:08:11.333Z,60.21
2022-07-26T05:10:39.237Z,59.66
2022-07-26T05:13:07.651Z,59.62
2022-07-26T05:15:36.588Z,60.14
2022-07-26T05:18:06.670Z,59.24
2022-07-26T05:20:35.269Z,59.24
2022-07-26T05:23:04.109Z,58.80
2022-07-26T05:25:31.670Z,58.98
2022-07-26T05:27:59.148Z,59.15
2022-07-26T05:30:26.736Z,58.25
2022-07-26T05:32:54.242Z,57.63
2022-07-26T05:35:22.165Z,58.22
2022-07-26T05:37:49.786Z,57.77
2022-07-26T05:40:18.594Z,56.64
2022-07-26T05:42:46.136Z,56.49
2022-07-26T05:45:13.895Z,56.30
2022-07-26T05:47:41.649Z,56.51
2022-07-26T05:50:10.135Z,56.48
2022-07-26T05:52:37.704Z,56.32
2022-07-26T05:55:06.361Z,56.14
2022-07-26T05:57:35.681Z,56.67
2022-07-26T06:00:03.854Z,56.40
2022-07-26T06:02:31.672Z,57.06
2022-07-26T06:04:59.481Z,57.01
2022-07-26T06:07:31.310Z,57.61
2022-07-26T06:10:02.077Z,57.28
2022-07-26T06:12:29.969Z,57.17
2022-07-26T06:15:00.791Z,56.32
2022-07-26T06:17:30.341Z,55.23
2022-07-26T06:19:58.465Z,55.65
2022-07-26T06:22:26.471Z,56.10
2022-07-26T06:24:54.013Z,56.20
2022-07-26T06:27:21.522Z,56.01
2022-07-26T06:29:49.292Z,55.57
2022-07-26T06:32:18.136Z,55.43
2022-07-26T06:34:45.762Z,54.99
2022-07-26T06:37:13.222Z,55.53
2022-07-26T06:39:40.678Z,55.43
2022-07-26T06:42:08.247Z,55.46
2022-07-26T06:44:35.731Z,55.78
2022-07-26T06:47:03.233Z,53.53
2022-07-26T06:49:32.187Z,53.49
2022-07-26T06:51:59.645Z,53.75
2022-07-26T06:54:27.486Z,53.63
2022-07-26T06:56:54.935Z,53.03
2022-07-26T06:59:22.455Z,52.81
2022-07-26T07:01:55.402Z,52.58
2022-07-26T07:04:27.456Z,51.66
2022-07-26T07:06:57.376Z,52.30
2022-07-26T07:09:25.458Z,52.25
2022-07-26T07:11:58.934Z,52.76
2022-07-26T07:14:30.258Z,52.06
2022-07-26T07:16:58.415Z,52.20
2022-07-26T07:19:26.528Z,51.95
2022-07-26T07:21:54.166Z,51.71
2022-07-26T07:24:23.685Z,51.85
2022-07-26T07:26:51.179Z,51.61
2022-07-26T07:29:20.181Z,51.93
2022-07-26T07:31:49.757Z,51.72
2022-07-26T07:34:22.514Z,52.00
2022-07-26T07:36:51.450Z,51.74
2022-07-26T07:39:19.129Z,51.76
2022-07-26T07:41:49.461Z,52.34
2022-07-26T07:44:17.094Z,51.93
2022-07-26T07:46:44.578Z,52.44
2022-07-26T07:49:12.539Z,52.51
2022-07-26T07:51:40.331Z,51.27
2022-07-26T07:54:08.173Z,52.18
2022-07-26T07:56:35.967Z,52.43
2022-07-26T07:59:04.825Z,51.62
2022-07-26T08:01:39.779Z,51.65
2022-07-26T08:04:08.487Z,50.93
2022-07-26T08:06:36.307Z,50.57
2022-07-26T08:09:05.553Z,50.83
2022-07-26T08:11:34.273Z,50.02
2022-07-26T08:14:01.978Z,50.08
2022-07-26T08:16:31.022Z,50.48
2022-07-26T08:18:58.691Z,49.98
2022-07-26T08:21:28.953Z,51.05
2022-07-26T08:23:56.977Z,49.98
2022-07-26T08:26:24.653Z,49.15
2022-07-26T08:29:00.154Z,47.78
2022-07-26T08:31:28.101Z,47.77
2022-07-26T08:33:57.314Z,47.46
2022-07-26T08:36:26.236Z,47.35
2022-07-26T08:38:59.369Z,46.69
2022-07-26T08:41:26.843Z,46.68
2022-07-26T08:43:54.510Z,47.65
2022-07-26T08:46:26.947Z,47.17
2022-07-26T08:48:55.349Z,47.72
2022-07-26T08:51:25.502Z,48.82
2022-07-26T08:54:00.549Z,47.89
2022-07-26T08:56:32.378Z,47.59
2022-07-26T08:58:59.937Z,47.19
2022-07-26T09:01:28.158Z,46.99
2022-07-26T09:03:55.692Z,47.11
2022-07-26T09:06:26.495Z,46.34
2022-07-26T09:09:11.245Z,45.99
2022-07-26T09:11:39.224Z,46.19
2022-07-26T09:14:07.306Z,45.66
2022-07-26T09:16:39.275Z,44.72
2022-07-26T09:19:19.469Z,44.44
2022-07-26T09:21:48.324Z,42.99
2022-07-26T09:24:31.243Z,43.06
2022-07-26T09:26:59.436Z,43.68
2022-07-26T09:29:28.358Z,43.30
2022-07-26T09:32:10.276Z,44.37
2022-07-26T09:34:38.498Z,41.57
2022-07-26T09:37:13.418Z,42.19
2022-07-26T09:39:58.018Z,42.81
2022-07-26T09:42:29.341Z,42.32
2022-07-26T09:44:58.428Z,43.37
2022-07-26T09:47:36.833Z,42.81
2022-07-26T09:50:12.238Z,42.72
2022-07-26T09:52:41.090Z,41.89
2022-07-26T09:55:10.224Z,41.26
2022-07-26T09:57:37.807Z,40.19
2022-07-26T10:00:07.710Z,40.69
2022-07-26T10:02:35.651Z,39.71
2022-07-26T10:05:03.167Z,40.77
2022-07-26T10:07:30.711Z,40.54
2022-07-26T10:10:03.447Z,40.89
2022-07-26T10:12:33.021Z,41.30
2022-07-26T10:15:00.574Z,41.07
2022-07-26T10:17:45.747Z,41.20
2022-07-26T10:20:44.491Z,41.41
2022-07-26T10:23:40.838Z,42.70
2022-07-26T10:26:12.161Z,43.39
2022-07-26T10:28:40.741Z,43.38
2022-07-26T10:31:30.387Z,41.24
2022-07-26T10:34:01.692Z,41.53
2022-07-26T10:36:32.600Z,40.60
2022-07-26T10:39:01.526Z,40.02
2022-07-26T10:41:34.593Z,40.26
2022-07-26T10:44:20.742Z,40.01
2022-07-26T10:47:11.248Z,39.71
2022-07-26T10:49:39.697Z,41.55
2022-07-26T10:52:18.325Z,40.10
2022-07-26T10:55:19.565Z,40.76
2022-07-26T10:57:49.719Z,40.91
2022-07-26T11:00:20.112Z,41.55
2022-07-26T11:02:54.539Z,41.14
2022-07-26T11:05:25.865Z,40.88
2022-07-26T11:07:59.332Z,39.70
2022-07-26T11:10:29.238Z,39.24
2022-07-26T11:13:14.010Z,39.55
2022-07-26T11:15:43.160Z,39.62
2022-07-26T11:18:19.538Z,39.19
2022-07-26T11:20:49.149Z,40.11
2022-07-26T11:23:30.573Z,39.66
2022-07-26T11:26:02.672Z,39.37
2022-07-26T11:28:32.098Z,39.92
2022-07-26T11:31:00.740Z,39.69
2022-07-26T11:33:37.783Z,39.21
2022-07-26T11:36:06.006Z,38.72
2022-07-26T11:38:51.238Z,38.72
2022-07-26T11:41:34.404Z,36.90
2022-07-26T11:44:04.775Z,39.20
2022-07-26T11:46:40.326Z,39.73
2022-07-26T11:49:15.814Z,40.30
2022-07-26T11:51:50.562Z,40.60
2022-07-26T11:54:18.238Z,41.20
2022-07-26T11:56:56.049Z,40.06
2022-07-26T11:59:26.784Z,40.52
2022-07-26T12:01:55.225Z,40.45
2022-07-26T12:04:24.935Z,39.46
2022-07-26T12:06:53.503Z,39.79
2022-07-26T12:09:32.089Z,39.83
2022-07-26T12:12:00.349Z,40.25
2022-07-26T12:14:30.685Z,40.74
2022-07-26T12:16:59.298Z,40.18
2022-07-26T12:19:29.840Z,40.02
2022-07-26T12:21:59.985Z,39.41
2022-07-26T12:24:46.025Z,39.85
2022-07-26T12:27:15.870Z,40.56
2022-07-26T12:29:46.275Z,40.33
2022-07-26T12:32:15.176Z,40.58
2022-07-26T12:34:57.607Z,40.02
2022-07-26T12:37:39.582Z,39.71
2022-07-26T12:40:10.466Z,40.69
2022-07-26T12:42:39.555Z,38.60
2022-07-26T12:45:10.516Z,38.25
2022-07-26T12:47:39.020Z,38.71
2022-07-26T12:50:08.533Z,38.49
2022-07-26T12:52:36.405Z,38.41
2022-07-26T12:55:06.413Z,37.91
2022-07-26T12:57:34.239Z,38.63
2022-07-26T13:00:06.084Z,38.48
2022-07-26T13:02:34.925Z,38.37
2022-07-26T13:05:04.294Z,38.89
2022-07-26T13:07:31.895Z,38.91
2022-07-26T13:10:31.134Z,38.26
2022-07-26T13:12:47.162Z,39.02
2022-07-26T13:15:14.643Z,38.67
2022-07-26T13:17:43.426Z,37.81
2022-07-26T13:20:11.274Z,37.86
2022-07-26T13:22:38.729Z,38.28
2022-07-26T13:25:08.754Z,38.04
2022-07-26T13:27:39.105Z,38.74
2022-07-26T13:30:09.731Z,38.78
2022-07-26T13:32:37.187Z,38.20
2022-07-26T13:35:06.709Z,37.49
2022-07-26T13:37:34.236Z,37.65
2022-07-26T13:40:01.823Z,38.68
2022-07-26T13:42:29.331Z,38.77
2022-07-26T13:44:56.814Z,38.63
2022-07-26T13:47:24.276Z,38.40
2022-07-26T13:49:51.743Z,38.22
2022-07-26T13:52:20.604Z,38.28
2022-07-26T13:54:48.057Z,37.74
2022-07-26T13:57:15.531Z,37.87
2022-07-26T13:59:43.002Z,37.79
2022-07-26T14:02:10.614Z,37.20
2022-07-26T14:04:38.154Z,37.77
2022-07-26T14:07:05.604Z,36.95
2022-07-26T14:09:34.405Z,36.99
2022-07-26T14:12:01.891Z,37.91
2022-07-26T14:14:29.374Z,36.75
2022-07-26T14:16:56.892Z,37.08
2022-07-26T14:19:24.402Z,37.19
2022-07-26T14:21:59.095Z,37.80
2022-07-26T14:24:28.040Z,38.04
2022-07-26T14:26:59.686Z,37.59
2022-07-26T14:29:29.438Z,37.25
2022-07-26T14:31:57.339Z,37.22
2022-07-26T14:34:24.972Z,37.87
2022-07-26T14:36:52.531Z,37.50
2022-07-26T14:39:20.235Z,37.27
2022-07-26T14:41:48.445Z,37.43
2022-07-26T14:44:17.584Z,37.13
2022-07-26T14:46:46.366Z,36.98
2022-07-26T14:49:14.326Z,36.97
2022-07-26T14:51:41.924Z,37.07
2022-07-26T14:54:10.010Z,36.82
2022-07-26T14:56:37.717Z,36.13
2022-07-26T14:59:05.326Z,36.09
2022-07-26T15:01:34.432Z,37.37
2022-07-26T15:04:02.046Z,37.53
2022-07-26T15:06:29.710Z,37.18
2022-07-26T15:08:57.443Z,37.34
2022-07-26T15:11:25.144Z,36.54
2022-07-26T15:13:54.135Z,36.67
2022-07-26T15:16:22.149Z,36.78
2022-07-26T15:18:51.345Z,37.33
2022-07-26T15:21:18.993Z,37.66
2022-07-26T15:23:46.499Z,37.84
2022-07-26T15:26:14.042Z,37.98
2022-07-26T15:28:41.488Z,37.23
2022-07-26T15:31:10.441Z,37.93
2022-07-26T15:33:38.065Z,37.62
2022-07-26T15:36:07.145Z,37.89
2022-07-26T15:38:34.597Z,37.40
2022-07-26T15:41:02.167Z,37.26
2022-07-26T15:43:48.558Z,37.14
2022-07-26T15:46:17.138Z,37.51
2022-07-26T15:48:45.560Z,36.53
2022-07-26T15:51:15.131Z,35.71
2022-07-26T15:53:46.397Z,37.16
2022-07-26T15:56:14.459Z,36.72
2022-07-26T15:58:41.950Z,36.66
2022-07-26T16:01:09.469Z,35.90
2022-07-26T16:03:37.016Z,35.46
2022-07-26T16:06:06.145Z,35.43
2022-07-26T16:08:47.459Z,35.14
2022-07-26T16:11:22.917Z,34.81
2022-07-26T16:13:51.456Z,34.55
2022-07-26T16:16:30.319Z,34.89
2022-07-26T16:18:58.358Z,35.29
2022-07-26T16:21:26.334Z,35.08
2022-07-26T16:23:55.352Z,35.15
2022-07-26T16:26:25.065Z,35.43
2022-07-26T16:28:53.077Z,35.06
2022-07-26T16:31:20.748Z,35.33
2022-07-26T16:33:48.234Z,35.02
2022-07-26T16:36:15.789Z,34.42
2022-07-26T16:38:43.246Z,34.41
2022-07-26T16:41:12.796Z,34.96
2022-07-26T16:43:40.341Z,34.64
2022-07-26T16:46:07.844Z,34.75
2022-07-26T16:48:35.498Z,34.48
2022-07-26T16:51:02.992Z,34.61
2022-07-26T16:53:30.595Z,35.44
2022-07-26T16:55:58.114Z,34.46
2022-07-26T16:58:26.945Z,33.84
2022-07-26T17:00:54.561Z,33.91
2022-07-26T17:03:22.156Z,34.22
2022-07-26T17:05:49.935Z,34.78
2022-07-26T17:08:17.646Z,34.18
2022-07-26T17:10:45.602Z,34.38
2022-07-26T17:13:13.115Z,35.37
2022-07-26T17:15:41.934Z,35.87
2022-07-26T17:18:09.679Z,35.66
2022-07-26T17:20:39.157Z,34.52
2022-07-26T17:23:06.729Z,33.64
2022-07-26T17:25:34.259Z,33.39
2022-07-26T17:28:02.058Z,32.52
2022-07-26T17:30:29.677Z,33.20
2022-07-26T17:32:58.570Z,34.00
2022-07-26T17:35:26.302Z,35.18
2022-07-26T17:37:55.975Z,36.25
2022-07-26T17:40:25.749Z,36.73
2022-07-26T17:42:53.547Z,37.46
2022-07-26T17:45:21.222Z,37.38
2022-07-26T17:47:48.692Z,38.04
2022-07-26T17:53:05.111Z,37.79
2022-07-26T17:55:32.582Z,38.73
2022-07-26T17:58:00.126Z,38.39
2022-07-26T18:00:29.171Z,38.78
2022-07-26T18:02:57.395Z,38.91
2022-07-26T18:05:33.956Z,39.65
2022-07-26T18:08:03.885Z,39.39
2022-07-26T18:10:31.477Z,40.09
2022-07-26T18:12:58.963Z,40.43
2022-07-26T18:15:26.474Z,40.30
2022-07-26T18:17:54.074Z,40.91
2022-07-26T18:20:21.566Z,40.56
2022-07-26T18:22:54.549Z,40.83
2022-07-26T18:25:22.100Z,40.97
2022-07-26T18:27:49.778Z,40.81
2022-07-26T18:30:17.390Z,40.83
2022-07-26T18:32:44.881Z,40.62
2022-07-26T18:35:12.419Z,40.90
2022-07-26T18:37:39.959Z,40.71
2022-07-26T18:40:09.896Z,41.12
2022-07-26T18:42:37.830Z,41.07
2022-07-26T18:45:08.498Z,40.91
2022-07-26T18:47:36.090Z,41.44
2022-07-26T18:50:03.870Z,40.98
2022-07-26T18:52:32.796Z,41.23
2022-07-26T18:55:06.640Z,40.99
2022-07-26T18:57:36.909Z,41.23
2022-07-26T19:00:06.241Z,41.66
2022-07-26T19:02:34.926Z,41.38
2022-07-26T19:05:02.713Z,41.62
2022-07-26T19:07:32.830Z,41.75
2022-07-26T19:10:00.829Z,41.70
2022-07-26T19:12:28.890Z,41.34
2022-07-26T19:15:09.116Z,41.16
2022-07-26T19:17:44.596Z,41.36
2022-07-26T19:20:35.516Z,41.32
2022-07-26T19:23:17.184Z,41.30
2022-07-26T19:25:48.562Z,41.63
2022-07-26T19:28:23.709Z,41.43
2022-07-26T19:30:54.495Z,41.56
2022-07-26T19:33:28.978Z,41.69
2022-07-26T19:35:57.918Z,41.40
2022-07-26T19:38:26.023Z,41.55
2022-07-26T19:40:55.654Z,42.12
2022-07-26T19:43:23.779Z,42.08
2022-07-26T19:45:55.637Z,41.94
2022-07-26T19:48:25.606Z,42.49
2022-07-26T19:50:55.727Z,41.88
2022-07-26T19:53:30.213Z,42.05
2022-07-26T19:56:01.818Z,42.62
2022-07-26T19:58:31.625Z,42.40
2022-07-26T20:01:09.253Z,42.10
2022-07-26T20:03:38.348Z,42.79
2022-07-26T20:06:13.108Z,42.89
2022-07-26T20:08:50.013Z,42.92
2022-07-26T20:11:19.938Z,42.93
2022-07-26T20:13:53.982Z,42.62
2022-07-26T20:16:30.401Z,42.80
2022-07-26T20:19:03.524Z,43.09
2022-07-26T20:21:37.219Z,43.57
2022-07-26T20:24:07.319Z,43.64
2022-07-26T20:26:37.481Z,43.62
2022-07-26T20:29:31.596Z,43.70
2022-07-26T20:32:01.233Z,44.07
2022-07-26T20:34:33.855Z,44.38
2022-07-26T20:37:08.972Z,44.69
2022-07-26T20:39:48.247Z,44.80
2022-07-26T20:42:27.270Z,45.47
2022-07-26T20:45:03.288Z,46.26
2022-07-26T20:47:58.456Z,46.78
2022-07-26T20:50:39.463Z,47.00
2022-07-26T20:53:12.869Z,47.47
2022-07-26T20:55:57.413Z,47.52
2022-07-26T20:58:33.257Z,47.79
2022-07-26T21:01:01.252Z,48.55
2022-07-26T21:03:30.510Z,49.03
2022-07-26T21:05:59.263Z,49.32
2022-07-26T21:08:30.867Z,49.34
2022-07-26T21:11:11.880Z,49.47
2022-07-26T21:13:41.050Z,49.72
2022-07-26T21:16:11.729Z,50.01
2022-07-26T21:18:53.027Z,50.52
2022-07-26T21:21:33.861Z,50.29
2022-07-26T21:24:03.263Z,50.90
2022-07-26T21:26:48.735Z,51.07
2022-07-26T21:29:22.781Z,51.18
2022-07-26T21:32:02.164Z,51.01
2022-07-26T21:34:46.099Z,51.34
2022-07-26T21:37:25.690Z,51.33
2022-07-26T21:40:00.662Z,51.48
2022-07-26T21:42:32.151Z,51.74
2022-07-26T21:45:01.904Z,51.33
2022-07-26T21:47:35.832Z,51.44
2022-07-26T21:50:11.096Z,51.83
2022-07-26T21:52:44.502Z,51.45
2022-07-26T21:55:30.473Z,51.63
2022-07-26T21:58:04.834Z,52.07
2022-07-26T22:00:45.866Z,52.69
2022-07-26T22:03:16.229Z,52.60
2022-07-26T22:05:48.838Z,52.70
2022-07-26T22:08:23.626Z,52.89
2022-07-26T22:10:59.581Z,53.14
2022-07-26T22:13:32.062Z,53.28
2022-07-26T22:16:05.477Z,53.31
2022-07-26T22:18:51.579Z,53.06
2022-07-26T22:21:26.439Z,53.79
2022-07-26T22:23:56.860Z,53.43
2022-07-26T22:26:27.272Z,53.95
2022-07-26T22:28:55.108Z,54.09
2022-07-26T22:31:22.908Z,53.66
2022-07-26T22:33:50.626Z,54.15
2022-07-26T22:36:19.775Z,54.64
2022-07-26T22:38:47.655Z,55.06
2022-07-26T22:41:15.603Z,55.01
2022-07-26T22:43:43.502Z,54.93
2022-07-26T22:46:11.410Z,55.04
2022-07-26T22:48:44.442Z,54.82
2022-07-26T22:51:17.298Z,55.23
2022-07-26T22:53:46.406Z,55.19
2022-07-26T22:56:14.067Z,55.38
2022-07-26T22:58:47.247Z,55.61
2022-07-26T23:01:16.384Z,56.09
2022-07-26T23:03:44.592Z,55.54
2022-07-26T23:06:31.195Z,56.12
2022-07-26T23:09:01.250Z,55.85
2022-07-26T23:11:30.817Z,56.00
2022-07-26T23:13:59.508Z,56.34
2022-07-26T23:16:27.240Z,56.58
2022-07-26T23:18:56.335Z,56.25
2022-07-26T23:21:23.969Z,56.44
2022-07-26T23:23:51.549Z,56.66
2022-07-26T23:26:20.467Z,56.68
2022-07-26T23:28:48.036Z,56.70
2022-07-26T23:31:15.869Z,57.03
2022-07-26T23:33:53.076Z,57.00
2022-07-26T23:36:25.725Z,57.30
2022-07-26T23:38:53.596Z,57.19
2022-07-26T23:41:22.629Z,57.85
2022-07-26T23:43:50.173Z,57.37
2022-07-26T23:46:18.148Z,57.54
2022-07-26T23:48:45.930Z,57.14
2022-07-26T23:51:13.861Z,57.55
2022-07-26T23:53:41.704Z,57.33
2022-07-26T23:56:09.718Z,57.50
2022-07-26T23:58:38.797Z,58.10
